Clarks Point Airport

About
Name: Clarks Point Airport
Identifier:  CLP/PFCL
Serves:  Clarks Point, Alaska
Owner:  State of Alaska DOT&PF - Central Region
Public/Private:  Public
Local Time:  17. Aug 20:31 AKDT
Description: Clarks Point Airport is a state-owned public-use airport located in Clarks Point, a city in the Dillingham Census Area of the U.S. state of Alaska.
Source: Wikipedia
Location
Clarks Point
  United States

Runways
Identifier Length (m/ft) Surface
18/36 3,200/3,200 Gravel
Flights per Day
3 flights
Distance: 27km (16mi)
Punctuality
90% (0 flights per day delayed)
Delay Average: 107 minutes
Current Weather
 20 C (Humidity: 60%)
  13kt (24km/h / 14mph) from 10°
  16km (10 mi.)
 
 METAR PFCL 180356Z AUTO 01013KT 10SM CLR 20/12 A3031 RMK AO2 SLP255 T02000117 TSNO

Current Flights

Departures
Number Departure To Airline
Arrivals
Number Arrival From Airline

Current Delays

Departures
N/A
Arrivals
N/A

Destinations

Top Destinations
Airport Flights
per week
Seats
per week
  Anchorage (ANC) <1 - 0 0

Airlines & Planes

Top Airlines
Airline Flights
per Day
Seats
per Day
  PenAir <1 -
Top Plane Types
Model Flights Seats